Time;durP1;ratioP1;P1;durP2;ratioP2;P2;SDS_P1;SDS_P2;PMS_P1;PMS_P2;Temp;Humidity;BMP_temperature;BMP_pressure;BME280_temperature;BME280_humidity;BME280_pressure;Samples;Min_cycle;Max_cycle;Signal;HPM_P1;HPM_P2
2022/11/18 00:00:03;;;;;;;;;4.75;4.00;;;;;12.03;90.61;97898.13;4945681;28;45420;-70
2022/11/18 00:02:29;;;;;;;;;4.20;2.80;;;;;12.02;90.24;97904.38;4955082;28;45420;-72
2022/11/18 00:04:55;;;;;;;;;3.00;3.00;;;;;12.01;90.70;97897.38;4954692;28;45479;-70
2022/11/18 00:07:20;;;;;;;;;2.00;2.00;;;;;12.01;90.61;97905.31;4955030;28;45429;-70
2022/11/18 00:09:46;;;;;;;;;3.00;3.00;;;;;12.03;90.35;97895.50;4954459;28;45455;-70
2022/11/18 00:14:55;;;;;;;;;8.00;4.25;;;;;12.06;90.25;97906.72;4954164;28;45450;-70
2022/11/18 00:17:21;;;;;;;;;5.50;4.00;;;;;12.08;90.34;97903.94;4954676;28;45541;-71
2022/11/18 00:19:46;;;;;;;;;2.00;2.00;;;;;12.08;90.09;97915.34;4956201;28;45462;-71
2022/11/18 00:22:13;;;;;;;;;3.50;3.50;;;;;12.06;90.54;97916.44;4949371;28;45506;-70
2022/11/18 00:24:39;;;;;;;;;1.25;1.25;;;;;12.03;91.00;97988.81;4945894;28;45424;-70
2022/11/18 00:27:04;;;;;;;;;0.50;0.50;;;;;11.94;86.69;97968.25;4949681;28;47513;-70
2022/11/18 00:29:30;;;;;;;;;1.00;0.00;;;;;11.90;80.97;97974.66;4952550;28;45442;-71
2022/11/18 00:31:56;;;;;;;;;0.00;0.00;;;;;11.79;79.86;97964.78;4954885;28;45442;-70
2022/11/18 00:34:23;;;;;;;;;0.00;0.00;;;;;11.71;77.27;98038.34;4951635;28;45469;-71
2022/11/18 00:36:48;;;;;;;;;0.00;0.00;;;;;11.66;77.86;98024.56;4956914;28;46228;-71
2022/11/18 00:39:17;;;;;;;;;0.00;0.00;;;;;11.51;78.17;97972.72;4948514;28;45556;-70
2022/11/18 00:44:26;;;;;;;;;0.00;0.00;;;;;11.15;81.03;97981.94;4949900;28;45394;-71
2022/11/18 00:46:52;;;;;;;;;0.00;0.00;;;;;11.00;81.49;97995.22;4954306;28;45724;-71
2022/11/18 00:49:17;;;;;;;;;0.00;0.00;;;;;10.93;79.27;97989.44;4948110;28;45463;-70
2022/11/18 00:51:43;;;;;;;;;0.00;0.00;;;;;10.92;83.09;97994.81;4953674;28;45913;-71
2022/11/18 00:54:08;;;;;;;;;0.00;0.00;;;;;10.88;82.60;97966.94;4955266;28;45547;-70
2022/11/18 00:56:33;;;;;;;;;0.00;0.00;;;;;10.90;78.40;97962.41;4949149;28;46455;-70
2022/11/18 00:58:59;;;;;;;;;0.00;0.00;;;;;10.92;80.70;97974.56;4957409;28;45361;-70
2022/11/18 01:01:25;;;;;;;;;0.00;0.00;;;;;10.93;80.15;97973.63;4953415;28;45328;-70
2022/11/18 01:03:50;;;;;;;;;0.00;0.00;;;;;10.92;81.64;97971.91;4958016;28;45418;-70
2022/11/18 01:06:16;;;;;;;;;0.00;0.00;;;;;10.89;83.26;97969.50;4953717;28;45423;-70
2022/11/18 01:08:41;;;;;;;;;0.00;0.00;;;;;10.86;84.43;97979.38;4969718;28;45492;-70
2022/11/18 01:13:53;;;;;;;;;0.00;0.00;;;;;10.75;85.24;97985.25;4957337;28;45438;-70
2022/11/18 01:16:21;;;;;;;;;0.00;0.00;;;;;10.72;84.20;97993.38;4952687;28;46800;-70
2022/11/18 01:18:47;;;;;;;;;0.00;0.00;;;;;10.72;83.99;97990.72;4953537;28;45506;-70
2022/11/18 01:21:12;;;;;;;;;0.00;0.00;;;;;10.73;84.93;97995.03;4953664;28;45424;-70
2022/11/18 01:23:38;;;;;;;;;0.00;0.00;;;;;10.71;85.39;97996.94;4955211;28;45599;-70
2022/11/18 01:26:06;;;;;;;;;0.00;0.00;;;;;10.71;85.66;98010.97;4956458;28;46494;-70
2022/11/18 01:28:31;;;;;;;;;0.00;0.00;;;;;10.74;85.38;98018.66;4962652;28;45457;-70
2022/11/18 01:31:12;;;;;;;;;0.00;0.00;;;;;10.74;86.39;98023.09;4955972;28;45572;-70
2022/11/18 01:33:38;;;;;;;;;0.00;0.00;;;;;10.70;86.48;98030.34;4951886;28;45592;-70
2022/11/18 01:36:04;;;;;;;;;0.00;0.00;;;;;10.69;86.95;98035.72;4955796;28;46678;-70
2022/11/18 01:38:30;;;;;;;;;4.75;2.00;;;;;10.70;87.08;98030.34;4954096;28;45496;-70
2022/11/18 01:40:55;;;;;;;;;0.00;0.00;;;;;10.73;87.67;98030.16;4957352;28;45810;-70
2022/11/18 01:43:22;;;;;;;;;0.00;0.00;;;;;10.76;87.41;98027.34;4957372;28;45422;-70
2022/11/18 01:45:49;;;;;;;;;0.00;0.00;;;;;10.79;87.75;98037.72;4947110;28;45405;-70
2022/11/18 01:48:25;;;;;;;;;0.00;0.00;;;;;10.82;88.27;98044.59;4956812;28;45482;-70
2022/11/18 01:51:01;;;;;;;;;0.00;0.00;;;;;10.86;88.30;98046.13;4957808;28;45541;-70
2022/11/18 01:53:37;;;;;;;;;0.00;0.00;;;;;10.90;87.70;98049.41;4957185;28;45438;-70
2022/11/18 01:56:15;;;;;;;;;0.00;0.00;;;;;10.91;87.25;98045.84;4950380;28;45735;-70
2022/11/18 01:58:53;;;;;;;;;0.00;0.00;;;;;10.92;87.45;98056.31;4946639;28;45587;-70
2022/11/18 02:01:18;;;;;;;;;0.00;0.00;;;;;10.95;87.23;98057.91;4951327;28;45299;-70
2022/11/18 02:03:45;;;;;;;;;0.00;0.00;;;;;10.96;86.82;98049.06;4957366;28;45479;-70
2022/11/18 02:06:12;;;;;;;;;0.00;0.00;;;;;11.00;87.48;98050.59;4947221;28;45624;-70
2022/11/18 02:08:39;;;;;;;;;4.40;2.80;;;;;11.01;87.08;98054.94;4955885;28;45510;-71
2022/11/18 02:11:49;;;;;;;;;1.00;1.00;;;;;11.00;87.18;98050.59;4955864;28;45510;-71
2022/11/18 02:13:56;;;;;;;;;0.00;0.00;;;;;10.94;87.71;98056.22;4942761;28;45414;-70
2022/11/18 02:16:31;;;;;;;;;2.00;1.00;;;;;10.88;88.56;98051.31;4958794;28;46319;-71
2022/11/18 02:19:09;;;;;;;;;0.20;0.20;;;;;10.83;88.09;98054.22;4956734;28;45369;-71
2022/11/18 02:22:17;;;;;;;;;2.50;1.50;;;;;10.82;88.60;98052.50;4956406;28;45528;-71
2022/11/18 02:25:08;;;;;;;;;0.75;0.75;;;;;10.80;88.56;98057.03;4950473;28;45457;-71
2022/11/18 02:27:39;;;;;;;;;0.00;0.00;;;;;10.78;88.51;98054.47;4968806;28;46852;-71
2022/11/18 02:30:08;;;;;;;;;0.20;0.20;;;;;10.78;88.62;98054.47;4945470;28;45411;-71
2022/11/18 02:32:39;;;;;;;;;0.00;0.00;;;;;10.80;89.66;98067.56;4953695;28;45555;-71
2022/11/18 02:35:40;;;;;;;;;3.50;0.75;;;;;10.81;89.86;98056.09;4949652;28;45670;-71
2022/11/18 02:38:28;;;;;;;;;0.00;0.00;;;;;10.81;89.94;98067.47;4926283;28;46351;-71
2022/11/18 02:41:22;;;;;;;;;0.00;0.00;;;;;10.80;90.23;98065.78;4956476;28;45399;-70
2022/11/18 02:44:01;;;;;;;;;0.00;0.00;;;;;10.83;90.13;98064.75;4947927;28;45382;-71
2022/11/18 02:46:31;;;;;;;;;0.00;0.00;;;;;10.84;89.72;98062.03;4952577;28;45487;-70
2022/11/18 02:48:59;;;;;;;;;0.40;0.00;;;;;10.87;90.18;98066.28;4948274;28;45377;-70
2022/11/18 02:51:28;;;;;;;;;0.00;0.00;;;;;10.87;90.14;98065.44;4955122;28;45471;-70
2022/11/18 02:54:02;;;;;;;;;0.00;0.00;;;;;10.87;89.92;98068.06;4970727;28;45579;-70
2022/11/18 02:56:28;;;;;;;;;0.00;0.00;;;;;10.87;89.78;98058.38;4951403;28;45566;-70
2022/11/18 02:58:54;;;;;;;;;0.00;0.00;;;;;10.89;89.84;98055.66;4956301;28;46436;-71
2022/11/18 03:01:26;;;;;;;;;0.00;0.00;;;;;10.88;89.43;98064.50;4954779;28;45307;-71
2022/11/18 03:03:52;;;;;;;;;0.00;0.00;;;;;10.83;89.71;98070.03;4956049;28;45466;-70
2022/11/18 03:06:29;;;;;;;;;0.00;0.00;;;;;10.79;89.79;98068.50;4955857;28;45358;-70
2022/11/18 03:08:54;;;;;;;;;0.00;0.00;;;;;10.74;89.17;98063.50;4943390;28;46412;-70
2022/11/18 03:11:27;;;;;;;;;1.00;0.25;;;;;10.71;89.69;98061.06;4948081;28;45385;-70
2022/11/18 03:14:01;;;;;;;;;0.00;0.00;;;;;10.68;89.95;98055.09;4941724;28;45422;-70
2022/11/18 03:16:36;;;;;;;;;0.50;0.50;;;;;10.65;90.16;98055.28;4949565;28;45414;-70
2022/11/18 03:19:11;;;;;;;;;1.00;0.00;;;;;10.63;90.65;98050.09;4947299;28;45705;-70
2022/11/18 03:21:42;;;;;;;;;0.00;0.00;;;;;10.63;90.95;98058.00;4948695;28;45417;-70
2022/11/18 03:24:34;;;;;;;;;0.25;0.00;;;;;10.63;90.46;98060.63;4955510;28;45469;-70
2022/11/18 03:27:11;;;;;;;;;2.00;0.25;;;;;10.64;90.66;98064.97;4951902;28;45599;-70
2022/11/18 03:29:47;;;;;;;;;0.00;0.00;;;;;10.64;91.42;98070.25;4963628;28;45528;-70
2022/11/18 03:32:18;;;;;;;;;0.40;0.20;;;;;10.62;91.37;98066.84;4953618;28;45438;-71
2022/11/18 03:34:51;;;;;;;;;0.00;0.00;;;;;10.57;91.49;98066.25;4950963;28;45390;-70
2022/11/18 03:37:19;;;;;;;;;2.00;0.00;;;;;10.57;91.55;98063.59;4953430;28;45690;-70
2022/11/18 03:39:53;;;;;;;;;2.00;1.00;;;;;10.57;92.23;98066.25;4955049;28;45437;-70
2022/11/18 03:42:40;;;;;;;;;1.20;1.20;;;;;10.57;92.69;98062.75;4955701;28;45508;-70
2022/11/18 03:45:15;;;;;;;;;1.00;1.00;;;;;10.53;92.86;98063.88;4946271;28;45506;-70
2022/11/18 03:47:47;;;;;;;;;1.00;1.00;;;;;10.51;92.54;98066.59;4943471;28;45296;-70
2022/11/18 03:50:17;;;;;;;;;1.00;1.00;;;;;10.50;92.93;98067.53;4948559;28;45841;-71
2022/11/18 03:52:44;;;;;;;;;2.00;2.00;;;;;10.48;92.47;98080.81;4965692;28;45459;-72
2022/11/18 03:55:18;;;;;;;;;0.50;0.50;;;;;10.46;92.92;98080.03;4965285;28;45618;-72
2022/11/18 03:57:59;;;;;;;;;0.00;0.00;;;;;10.42;92.86;98075.00;4951846;28;45430;-71
2022/11/18 04:00:31;;;;;;;;;2.60;1.00;;;;;10.41;93.17;98075.94;4954340;28;45374;-70
2022/11/18 04:02:57;;;;;;;;;1.80;0.00;;;;;10.40;93.11;98087.41;4954729;28;45438;-70
2022/11/18 04:05:23;;;;;;;;;0.00;0.00;;;;;10.37;93.01;98082.34;4953106;28;45450;-70
2022/11/18 04:07:54;;;;;;;;;2.00;1.00;;;;;10.36;92.77;98081.50;4948332;28;45473;-70
2022/11/18 04:10:22;;;;;;;;;1.00;1.00;;;;;10.37;93.15;98075.28;4954794;28;46229;-70
2022/11/18 04:13:01;;;;;;;;;0.00;0.00;;;;;10.38;92.89;98082.25;4962773;28;45537;-70
2022/11/18 04:15:30;;;;;;;;;1.50;1.00;;;;;10.40;92.54;98077.72;4946607;28;45453;-70
2022/11/18 04:17:55;;;;;;;;;1.00;0.25;;;;;10.41;92.30;98081.22;4942715;28;45542;-70
2022/11/18 04:20:21;;;;;;;;;2.00;0.00;;;;;10.43;91.92;98095.16;4946461;28;46776;-70
2022/11/18 04:22:48;;;;;;;;;0.00;0.00;;;;;10.45;80.52;98080.97;4955282;28;45335;-70
2022/11/18 04:25:13;;;;;;;;;0.40;0.40;;;;;10.60;88.05;98096.84;4954575;28;45401;-70
2022/11/18 04:27:38;;;;;;;;;2.00;0.25;;;;;10.62;88.75;98134.50;4951381;28;45492;-70
2022/11/18 04:30:06;;;;;;;;;0.00;0.00;;;;;10.59;89.10;98126.78;4953289;28;47124;-70
2022/11/18 04:32:31;;;;;;;;;0.80;0.80;;;;;10.57;89.09;98118.94;4954065;28;45380;-70
2022/11/18 04:34:57;;;;;;;;;0.00;0.00;;;;;10.58;89.46;98119.78;4952648;28;45631;-70
2022/11/18 04:37:22;;;;;;;;;0.00;0.00;;;;;10.60;89.81;98125.84;4951042;28;45357;-70
2022/11/18 04:39:47;;;;;;;;;0.50;0.50;;;;;10.61;89.55;98132.81;4951698;28;46095;-69
2022/11/18 04:42:13;;;;;;;;;0.00;0.00;;;;;10.63;88.63;98142.34;4947911;28;45400;-70
2022/11/18 04:44:38;;;;;;;;;0.00;0.00;;;;;10.66;86.66;98151.88;4950838;28;45438;-70
2022/11/18 04:47:05;;;;;;;;;0.00;0.00;;;;;10.68;86.05;98160.53;4962347;28;45527;-70
2022/11/18 04:49:31;;;;;;;;;1.00;0.00;;;;;10.70;86.63;98150.75;4964689;28;47357;-70
2022/11/18 04:51:57;;;;;;;;;1.00;0.00;;;;;10.71;86.04;98155.94;4949907;28;45443;-69
2022/11/18 04:54:24;;;;;;;;;0.00;0.00;;;;;10.70;85.89;98150.75;4951886;28;45517;-70
2022/11/18 04:56:50;;;;;;;;;0.00;0.00;;;;;10.68;85.86;98150.84;4955002;28;45338;-70
2022/11/18 04:59:22;;;;;;;;;0.50;0.00;;;;;10.69;85.73;98162.25;4953482;28;45795;-70
2022/11/18 05:01:49;;;;;;;;;0.00;0.00;;;;;10.67;86.14;98162.31;4954425;28;45399;-70
2022/11/18 05:04:17;;;;;;;;;0.00;0.00;;;;;10.66;86.01;98168.53;4951964;28;45593;-70
2022/11/18 05:06:43;;;;;;;;;1.00;1.00;;;;;10.65;86.44;98169.47;4940255;28;45567;-70
2022/11/18 05:09:09;;;;;;;;;0.00;0.00;;;;;10.63;86.05;98166.06;4946585;28;45391;-70
2022/11/18 05:14:18;;;;;;;;;0.00;0.00;;;;;10.63;84.73;98175.75;4950447;28;45486;-70
2022/11/18 05:16:43;;;;;;;;;0.00;0.00;;;;;10.65;84.81;98176.53;4946217;28;45403;-69
2022/11/18 05:19:09;;;;;;;;;0.00;0.00;;;;;10.67;85.33;98169.38;4942058;28;46588;-70
2022/11/18 05:21:34;;;;;;;;;0.00;0.00;;;;;10.68;84.88;98179.00;4954484;28;45339;-70
2022/11/18 05:24:01;;;;;;;;;0.00;0.00;;;;;10.68;84.17;98176.34;4950858;28;45547;-70
2022/11/18 05:26:27;;;;;;;;;0.00;0.00;;;;;10.69;84.29;98178.91;4954167;28;45359;-70
2022/11/18 05:28:52;;;;;;;;;0.75;0.00;;;;;10.70;83.66;98180.59;4945010;28;45492;-70
2022/11/18 05:31:19;;;;;;;;;0.00;0.00;;;;;10.71;83.50;98182.31;4958846;28;45378;-70
2022/11/18 05:33:45;;;;;;;;;0.00;0.00;;;;;10.72;82.31;98180.53;4953805;28;45490;-69
2022/11/18 05:36:13;;;;;;;;;0.00;0.00;;;;;10.73;80.69;98190.09;4949056;28;45787;-70
2022/11/18 05:38:39;;;;;;;;;0.00;0.00;;;;;10.75;82.35;98197.00;4946787;28;45346;-69
2022/11/18 05:41:05;;;;;;;;;10.50;10.25;;;;;10.75;82.17;98194.38;4948510;28;45391;-69
2022/11/18 05:43:31;;;;;;;;;3.75;3.75;;;;;10.76;83.55;98201.34;4951950;28;45454;-70
2022/11/18 05:45:57;;;;;;;;;2.00;2.00;;;;;10.75;83.28;98188.25;4950189;28;45551;-70
2022/11/18 05:48:23;;;;;;;;;1.00;1.00;;;;;10.73;83.22;98198.00;4957169;28;46329;-70
2022/11/18 05:50:50;;;;;;;;;1.00;1.00;;;;;10.71;81.73;98194.63;4945825;28;45486;-70
2022/11/18 05:53:18;;;;;;;;;1.00;1.00;;;;;10.71;82.24;98205.19;4956427;28;45359;-70
2022/11/18 05:55:52;;;;;;;;;0.00;0.00;;;;;10.73;77.79;98203.28;4955340;28;45298;-70
2022/11/18 05:58:17;;;;;;;;;0.00;0.00;;;;;10.76;78.10;98214.53;4945547;28;45480;-70
2022/11/18 06:00:47;;;;;;;;;0.00;0.00;;;;;10.79;78.21;98219.63;4953113;28;45447;-70
2022/11/18 06:03:19;;;;;;;;;0.00;0.00;;;;;10.83;79.15;98233.50;4955625;28;45436;-69
2022/11/18 06:05:45;;;;;;;;;0.00;0.00;;;;;10.84;75.35;98230.78;4954408;28;45548;-70
2022/11/18 06:08:13;;;;;;;;;0.20;0.00;;;;;10.88;75.81;98236.75;4956505;28;46158;-70
2022/11/18 06:10:43;;;;;;;;;12.75;11.75;;;;;10.91;75.80;98233.91;4953484;28;45497;-70
2022/11/18 06:13:14;;;;;;;;;1.00;1.00;;;;;10.92;75.71;98230.34;4953337;28;45461;-70
2022/11/18 06:15:42;;;;;;;;;1.00;0.00;;;;;10.94;74.13;98233.75;4955386;28;45485;-70
2022/11/18 06:18:11;;;;;;;;;0.00;0.00;;;;;10.98;72.75;98232.66;4957876;28;46960;-70
2022/11/18 06:20:39;;;;;;;;;0.00;0.00;;;;;10.99;71.67;98234.34;4952475;28;45537;-70
2022/11/18 06:23:04;;;;;;;;;0.00;0.00;;;;;11.00;72.37;98232.56;4946543;28;45455;-70
2022/11/18 06:25:31;;;;;;;;;0.00;0.00;;;;;11.00;70.48;98238.69;4951522;28;45551;-70
2022/11/18 06:28:01;;;;;;;;;0.00;0.00;;;;;11.03;71.07;98245.59;4947860;28;46790;-70
2022/11/18 06:30:26;;;;;;;;;0.40;0.00;;;;;11.03;70.79;98248.22;4959269;28;45591;-69
2022/11/18 06:32:52;;;;;;;;;0.00;0.00;;;;;11.03;71.26;98256.13;4955856;28;45525;-70
2022/11/18 06:35:17;;;;;;;;;0.00;0.00;;;;;11.02;69.44;98255.28;4954980;28;45350;-70
2022/11/18 06:37:43;;;;;;;;;2.50;2.00;;;;;11.05;71.31;98264.81;4956142;28;46991;-71
2022/11/18 06:40:09;;;;;;;;;0.00;0.00;;;;;11.06;70.14;98274.44;4952207;28;45519;-70
2022/11/18 06:45:18;;;;;;;;;0.00;0.00;;;;;11.05;73.59;98283.28;4941625;28;45502;-71
2022/11/18 06:47:44;;;;;;;;;0.00;0.00;;;;;11.04;75.16;98284.22;4954509;28;45903;-70
2022/11/18 06:50:09;;;;;;;;;0.00;0.00;;;;;11.04;75.27;98297.41;4945320;28;45401;-69
2022/11/18 06:52:34;;;;;;;;;1.75;1.75;;;;;11.02;76.19;98300.13;4940460;28;45480;-71
2022/11/18 06:55:00;;;;;;;;;0.00;0.00;;;;;11.01;76.96;98302.84;4947963;28;45441;-70
2022/11/18 06:57:25;;;;;;;;;0.00;0.00;;;;;11.00;76.85;98307.25;4944025;28;45370;-80
2022/11/18 06:59:50;;;;;;;;;2.50;0.00;;;;;11.01;77.07;98314.25;4955394;28;45339;-80
2022/11/18 07:02:17;;;;;;;;;1.00;1.00;;;;;11.03;77.22;98314.16;4951997;28;45367;-79
2022/11/18 07:04:43;;;;;;;;;0.00;0.00;;;;;11.02;77.75;98312.44;4948732;28;45572;-80
2022/11/18 07:07:09;;;;;;;;;0.00;0.00;;;;;11.05;77.25;98317.56;4952418;28;47820;-79
2022/11/18 07:09:35;;;;;;;;;0.00;0.00;;;;;11.06;76.80;98324.53;4954468;28;45418;-80
2022/11/18 07:12:01;;;;;;;;;0.00;0.00;;;;;11.06;76.62;98333.28;4955681;28;45429;-79
2022/11/18 07:14:26;;;;;;;;;0.00;0.00;;;;;11.07;76.32;98329.72;4952971;28;45565;-81
2022/11/18 07:16:51;;;;;;;;;1.00;0.00;;;;;11.07;76.42;98332.34;4953924;28;45557;-81
2022/11/18 07:19:17;;;;;;;;;2.00;1.00;;;;;11.08;77.30;98322.66;4942484;28;45308;-80
2022/11/18 07:21:42;;;;;;;;;1.75;1.00;;;;;11.09;77.66;98324.34;4961346;28;45535;-82
2022/11/18 07:24:11;;;;;;;;;0.75;0.75;;;;;11.09;78.23;98333.13;4954755;28;45476;-81
2022/11/18 07:26:37;;;;;;;;;0.50;0.50;;;;;11.07;78.37;98342.03;4946100;28;46692;-82
2022/11/18 07:29:03;;;;;;;;;4.00;4.00;;;;;11.08;78.79;98349.03;4960430;28;45374;-81
2022/11/18 07:31:28;;;;;;;;;1.50;1.50;;;;;11.10;78.92;98353.28;4950369;28;45433;-81
2022/11/18 07:33:53;;;;;;;;;1.75;1.00;;;;;11.13;79.02;98360.19;4956149;28;45276;-82
2022/11/18 07:36:24;;;;;;;;;0.25;0.25;;;;;11.13;79.33;98361.03;4960879;28;45869;-81
2022/11/18 07:38:51;;;;;;;;;1.00;1.00;;;;;11.13;79.59;98376.00;4947075;28;45378;-80
2022/11/18 07:41:19;;;;;;;;;1.00;1.00;;;;;11.14;80.10;98383.00;4949860;28;45434;-82
2022/11/18 07:43:45;;;;;;;;;2.00;2.00;;;;;11.15;80.30;98388.19;4946632;28;45402;-82
2022/11/18 07:46:16;;;;;;;;;4.00;4.00;;;;;11.17;80.54;98383.69;4947510;28;45459;-82
2022/11/18 07:48:43;;;;;;;;;3.00;3.00;;;;;11.19;80.58;98387.09;4943122;28;45328;-81
2022/11/18 07:51:10;;;;;;;;;1.00;1.00;;;;;11.19;80.52;98399.44;4951929;28;45327;-81
2022/11/18 07:53:36;;;;;;;;;3.50;2.25;;;;;11.19;80.95;98397.66;4957085;28;45586;-81
2022/11/18 07:56:01;;;;;;;;;3.00;3.00;;;;;11.19;80.93;98405.56;4945812;28;46236;-82
2022/11/18 07:58:27;;;;;;;;;2.75;2.00;;;;;11.20;80.81;98406.41;4935058;28;45874;-82
2022/11/18 08:00:53;;;;;;;;;2.50;2.00;;;;;11.19;80.97;98413.47;4957929;28;45532;-81
2022/11/18 08:03:19;;;;;;;;;4.25;4.25;;;;;11.18;81.09;98422.31;4960596;28;45472;-81
2022/11/18 08:05:44;;;;;;;;;4.00;3.50;;;;;11.16;81.11;98426.84;4953280;28;45452;-82
2022/11/18 08:08:10;;;;;;;;;4.00;2.75;;;;;11.16;81.24;98423.34;4948540;28;45478;-82
2022/11/18 08:10:38;;;;;;;;;5.50;4.25;;;;;11.16;81.58;98423.34;4952947;28;45735;-82
2022/11/18 08:13:03;;;;;;;;;2.75;2.00;;;;;11.19;81.58;98437.22;4946942;28;45389;-81
2022/11/18 08:15:28;;;;;;;;;5.75;4.75;;;;;11.22;82.15;98441.50;4964915;28;46337;-82
2022/11/18 08:17:54;;;;;;;;;3.00;3.00;;;;;11.22;81.42;98441.50;4958080;28;45414;-81
2022/11/18 08:20:19;;;;;;;;;2.00;2.00;;;;;11.25;81.39;98448.38;4953721;28;45585;-81
2022/11/18 08:22:45;;;;;;;;;3.00;3.00;;;;;11.27;81.41;98446.50;4950619;28;45490;-81
2022/11/18 08:25:10;;;;;;;;;1.00;1.00;;;;;11.27;81.85;98446.50;4937520;28;45576;-81
2022/11/18 08:27:35;;;;;;;;;3.00;2.00;;;;;11.29;81.32;98456.03;4945462;28;45466;-81
2022/11/18 08:30:01;;;;;;;;;4.00;3.00;;;;;11.34;81.67;98455.81;4961800;28;45429;-81
2022/11/18 08:32:26;;;;;;;;;3.00;3.00;;;;;11.34;81.62;98450.53;4966557;28;45425;-81
2022/11/18 08:34:52;;;;;;;;;10.00;8.75;;;;;11.37;81.69;98460.91;4959280;28;45497;-81
2022/11/18 08:37:17;;;;;;;;;5.00;3.00;;;;;11.41;80.96;98460.66;4969398;28;45365;-81
2022/11/18 08:39:43;;;;;;;;;3.00;3.00;;;;;11.46;81.40;98469.19;4967103;28;45575;-81
2022/11/18 08:42:09;;;;;;;;;5.25;4.00;;;;;11.49;81.32;98465.53;4943484;28;45401;-81
2022/11/18 08:44:34;;;;;;;;;5.25;5.25;;;;;11.47;81.03;98476.16;4951475;28;46336;-81
2022/11/18 08:46:59;;;;;;;;;4.00;3.25;;;;;11.49;81.06;98466.38;4945740;28;45458;-81
2022/11/18 08:49:25;;;;;;;;;4.00;4.00;;;;;11.54;81.39;98466.13;4966372;28;45999;-81
2022/11/18 08:51:50;;;;;;;;;3.75;3.75;;;;;11.56;81.09;98464.28;4954824;28;45397;-81
2022/11/18 08:54:16;;;;;;;;;3.00;3.00;;;;;11.59;81.56;98466.72;4946880;28;46082;-81
2022/11/18 08:56:41;;;;;;;;;4.25;3.75;;;;;11.63;81.16;98470.91;4948474;28;45361;-81
2022/11/18 08:59:07;;;;;;;;;3.00;3.00;;;;;11.68;81.50;98473.31;4947438;28;45484;-81
2022/11/18 09:01:40;;;;;;;;;3.00;3.00;;;;;11.73;81.55;98477.38;4936900;28;45594;-81
2022/11/18 09:04:05;;;;;;;;;2.50;2.50;;;;;11.78;82.01;98483.28;4947927;28;45440;-80
2022/11/18 09:06:31;;;;;;;;;3.00;3.00;;;;;11.82;80.97;98482.19;4960526;28;45465;-81
2022/11/18 09:08:56;;;;;;;;;2.00;1.00;;;;;11.82;79.78;98479.56;4944250;28;45299;-81
2022/11/18 09:11:28;;;;;;;;;3.00;2.25;;;;;11.88;79.52;98487.16;4951967;28;45397;-80
2022/11/18 09:13:56;;;;;;;;;3.00;1.40;;;;;11.94;79.36;98483.28;4942474;28;48165;-81
2022/11/18 09:16:24;;;;;;;;;3.40;2.00;;;;;12.02;79.50;98490.81;4960282;28;45371;-81
2022/11/18 09:18:50;;;;;;;;;3.00;3.00;;;;;12.11;78.94;98493.78;4957012;28;45413;-81
2022/11/18 09:21:16;;;;;;;;;1.50;1.50;;;;;12.17;78.09;98496.09;4946170;28;45485;-80
2022/11/18 09:23:42;;;;;;;;;1.80;1.80;;;;;12.20;77.88;98500.34;4960178;28;45535;-80
2022/11/18 09:26:11;;;;;;;;;3.00;2.00;;;;;12.22;77.59;98503.75;4962245;28;45477;-81
2022/11/18 09:28:36;;;;;;;;;2.60;2.60;;;;;12.28;77.62;98507.81;4965238;28;45346;-81
2022/11/18 09:31:07;;;;;;;;;2.00;2.00;;;;;12.34;77.16;98503.06;4955747;28;45552;-81
2022/11/18 09:33:34;;;;;;;;;2.00;1.00;;;;;12.40;76.28;98494.75;4956698;28;45636;-81
2022/11/18 09:35:59;;;;;;;;;2.00;2.00;;;;;12.44;76.64;98488.34;4944815;28;45433;-81
2022/11/18 09:38:27;;;;;;;;;1.00;1.00;;;;;12.50;76.35;98485.38;4953704;28;45443;-81
2022/11/18 09:41:09;;;;;;;;;1.25;1.25;;;;;12.58;75.30;98484.91;4961151;28;45525;-81
2022/11/18 09:44:12;;;;;;;;;1.00;1.00;;;;;12.63;73.68;98488.13;4971439;28;48051;-81
2022/11/18 09:46:52;;;;;;;;;0.40;0.00;;;;;12.66;73.12;98493.25;4954933;28;45398;-81
2022/11/18 09:49:23;;;;;;;;;2.00;2.00;;;;;12.71;73.31;98490.34;4948146;28;45454;-81
2022/11/18 09:51:50;;;;;;;;;2.60;1.20;;;;;12.68;73.01;98498.47;4963214;28;45517;-81
2022/11/18 09:54:22;;;;;;;;;3.00;3.00;;;;;12.71;73.16;98495.63;4954341;28;45656;-81
2022/11/18 09:56:50;;;;;;;;;0.60;0.00;;;;;12.78;68.54;98503.09;4937052;28;45391;-81
2022/11/18 09:59:19;;;;;;;;;1.40;1.00;;;;;12.82;71.04;98509.94;4942705;28;45483;-82
2022/11/18 10:01:46;;;;;;;;;0.50;0.50;;;;;12.87;71.20;98514.97;4954080;28;45332;-81
2022/11/18 10:04:18;;;;;;;;;1.40;0.00;;;;;12.90;64.80;98515.59;4946171;28;46314;-81
2022/11/18 10:06:45;;;;;;;;;0.00;0.00;;;;;12.85;66.14;98524.78;4949633;28;45340;-82
2022/11/18 10:09:36;;;;;;;;;0.00;0.00;;;;;12.75;66.23;98518.28;4964441;28;45432;-82
2022/11/18 10:12:08;;;;;;;;;0.00;0.00;;;;;12.67;69.35;98512.63;4946173;28;46114;-83
2022/11/18 10:14:36;;;;;;;;;1.00;1.00;;;;;12.61;70.61;98519.09;4965690;28;45689;-81
2022/11/18 10:17:05;;;;;;;;;1.00;1.00;;;;;12.59;71.13;98518.34;4946018;28;45454;-81
2022/11/18 10:19:39;;;;;;;;;1.00;1.00;;;;;12.58;71.83;98517.47;4949225;28;45505;-80
2022/11/18 10:22:32;;;;;;;;;2.25;2.25;;;;;12.58;71.84;98517.47;4941447;28;45391;-81
2022/11/18 10:24:59;;;;;;;;;1.00;1.00;;;;;12.56;71.38;98516.75;4959115;28;47933;-81
2022/11/18 10:27:40;;;;;;;;;3.60;1.80;;;;;12.59;71.89;98520.97;4948370;28;45476;-81
2022/11/18 10:30:26;;;;;;;;;1.00;1.00;;;;;12.59;71.85;98521.84;4951991;28;45529;-80
2022/11/18 10:33:03;;;;;;;;;0.50;0.50;;;;;12.60;71.53;98520.03;4947418;28;45303;-81
2022/11/18 10:35:33;;;;;;;;;0.20;0.20;;;;;12.58;71.16;98520.13;4948028;28;45732;-80
2022/11/18 10:38:19;;;;;;;;;0.00;0.00;;;;;12.56;70.87;98516.75;4963627;28;45671;-82
2022/11/18 10:40:51;;;;;;;;;0.20;0.00;;;;;12.55;71.06;98507.13;4960964;28;45524;-80
2022/11/18 10:43:42;;;;;;;;;0.00;0.00;;;;;12.57;71.56;98512.28;4958976;28;45560;-80
2022/11/18 10:46:28;;;;;;;;;0.40;0.40;;;;;12.59;70.50;98508.63;4945561;28;47356;-80
2022/11/18 10:49:09;;;;;;;;;1.60;1.60;;;;;12.63;70.65;98504.00;4962391;28;45426;-79
2022/11/18 10:51:37;;;;;;;;;1.00;0.40;;;;;12.66;70.78;98498.53;4946125;28;45565;-79
2022/11/18 10:54:08;;;;;;;;;0.25;0.25;;;;;12.74;70.39;98495.44;4947281;28;45551;-80
2022/11/18 10:57:12;;;;;;;;;0.40;0.40;;;;;12.89;70.78;98491.91;4951500;28;45943;-80
2022/11/18 10:59:55;;;;;;;;;1.60;1.60;;;;;13.01;70.78;98490.31;4948177;28;45537;-80
2022/11/18 11:02:31;;;;;;;;;1.20;0.20;;;;;13.15;70.36;98488.56;4941451;28;45599;-80
2022/11/18 11:05:01;;;;;;;;;1.00;0.80;;;;;13.25;69.05;98481.75;4939805;28;45447;-81
2022/11/18 11:07:35;;;;;;;;;0.00;0.00;;;;;13.34;68.01;98476.88;4951680;28;45586;-81
2022/11/18 11:10:03;;;;;;;;;0.00;0.00;;;;;13.40;67.59;98464.09;4963929;28;45406;-78
2022/11/18 11:12:35;;;;;;;;;0.00;0.00;;;;;13.48;66.92;98483.00;4954404;28;45501;-80
2022/11/18 11:15:12;;;;;;;;;1.00;0.80;;;;;13.55;67.55;98479.03;4951852;28;45454;-81
2022/11/18 11:17:46;;;;;;;;;1.00;0.00;;;;;13.66;67.04;98475.72;4953544;28;45582;-81
2022/11/18 11:20:22;;;;;;;;;0.40;0.40;;;;;13.80;66.65;98475.69;4964182;28;45450;-80
2022/11/18 11:22:48;;;;;;;;;1.20;0.00;;;;;13.95;65.81;98471.19;4953805;28;45368;-80
2022/11/18 11:25:42;;;;;;;;;1.00;1.00;;;;;14.08;65.16;98466.81;4948523;28;45489;-80
2022/11/18 11:28:25;;;;;;;;;2.80;2.60;;;;;14.12;66.58;98460.34;4954472;28;46502;-79
2022/11/18 11:30:59;;;;;;;;;1.40;1.20;;;;;14.17;66.47;98449.47;4963401;28;45422;-80
2022/11/18 11:33:37;;;;;;;;;1.00;1.00;;;;;14.25;66.45;98458.59;4938884;28;45363;-81
2022/11/18 11:36:08;;;;;;;;;0.00;0.00;;;;;14.31;58.05;98455.56;4950400;28;45399;-80
2022/11/18 11:38:42;;;;;;;;;1.40;1.40;;;;;14.22;60.14;98442.91;4943161;28;46477;-80
2022/11/18 11:41:14;;;;;;;;;0.60;0.00;;;;;14.10;57.57;98450.81;4954008;28;45405;-80
2022/11/18 11:44:21;;;;;;;;;0.00;0.00;;;;;14.03;58.22;98462.78;4941961;28;45587;-81
2022/11/18 11:49:52;;;;;;;;;0.00;0.00;;;;;13.69;58.35;98451.69;4950217;28;45404;-80
2022/11/18 11:52:32;;;;;;;;;5.80;3.20;;;;;13.53;59.55;98459.75;4951350;28;45442;-80
2022/11/18 11:55:21;;;;;;;;;2.00;0.80;;;;;13.36;59.91;98451.16;4942314;28;45470;-80
2022/11/18 11:57:55;;;;;;;;;2.75;2.00;;;;;13.20;61.32;98461.84;4948134;28;45616;-80
2022/11/18 12:00:20;;;;;;;;;0.00;0.00;;;;;13.06;63.25;98467.09;4950183;28;45407;-81
2022/11/18 12:02:52;;;;;;;;;0.00;0.00;;;;;13.01;64.61;98458.56;4965226;28;45926;-81